createdAt,value
2022-12-03T00:00:13.493Z,6.70
2022-12-03T00:02:41.190Z,6.83
2022-12-03T00:05:09.640Z,7.43
2022-12-03T00:07:36.337Z,9.27
2022-12-03T00:10:04.561Z,7.73
2022-12-03T00:12:31.235Z,7.53
2022-12-03T00:14:58.519Z,7.23
2022-12-03T00:17:25.384Z,7.40
2022-12-03T00:19:52.079Z,8.33
2022-12-03T00:22:18.903Z,7.50
2022-12-03T00:24:45.527Z,7.17
2022-12-03T00:27:12.348Z,6.30
2022-12-03T00:29:39.184Z,7.60
2022-12-03T00:32:06.089Z,7.53
2022-12-03T00:34:32.870Z,8.33
2022-12-03T00:36:59.652Z,6.00
2022-12-03T00:39:26.450Z,7.40
2022-12-03T00:41:53.138Z,7.30
2022-12-03T00:44:19.976Z,6.20
2022-12-03T00:46:46.697Z,10.03
2022-12-03T00:49:13.574Z,8.20
2022-12-03T00:51:40.314Z,7.50
2022-12-03T00:54:07.235Z,8.13
2022-12-03T00:56:34.128Z,8.07
2022-12-03T00:59:00.961Z,8.33
2022-12-03T01:01:27.717Z,8.03
2022-12-03T01:03:54.686Z,8.23
2022-12-03T01:06:21.276Z,8.57
2022-12-03T01:08:48.077Z,8.47
2022-12-03T01:11:33.423Z,8.27
2022-12-03T01:14:00.354Z,7.87
2022-12-03T01:16:27.119Z,7.33
2022-12-03T01:18:54.210Z,7.93
2022-12-03T01:21:20.816Z,8.43
2022-12-03T01:23:47.623Z,7.90
2022-12-03T01:26:14.278Z,8.43
2022-12-03T01:28:42.144Z,9.43
2022-12-03T01:31:29.044Z,7.47
2022-12-03T01:33:56.156Z,8.53
2022-12-03T01:36:22.852Z,7.43
2022-12-03T01:38:49.731Z,7.97
2022-12-03T01:41:20.637Z,7.33
2022-12-03T01:43:47.927Z,6.53
2022-12-03T01:46:20.117Z,8.97
2022-12-03T01:48:48.059Z,8.97
2022-12-03T01:51:15.322Z,8.43
2022-12-03T01:53:43.053Z,7.83
2022-12-03T01:56:14.531Z,8.00
2022-12-03T01:58:42.094Z,8.53
2022-12-03T02:01:17.479Z,7.67
2022-12-03T02:03:45.922Z,7.23
2022-12-03T02:06:19.609Z,6.83
2022-12-03T02:08:47.946Z,7.13
2022-12-03T02:11:29.704Z,6.77
2022-12-03T02:14:01.418Z,7.30
2022-12-03T02:16:29.541Z,6.50
2022-12-03T02:18:57.181Z,6.27
2022-12-03T02:21:30.275Z,6.80
2022-12-03T02:24:15.301Z,6.23
2022-12-03T02:26:42.238Z,6.33
2022-12-03T02:29:08.901Z,7.80
2022-12-03T02:31:35.768Z,6.37
2022-12-03T02:34:10.304Z,7.00
2022-12-03T02:36:38.251Z,7.03
2022-12-03T02:39:05.607Z,7.83
2022-12-03T02:41:51.249Z,6.47
2022-12-03T02:44:17.987Z,7.77
2022-12-03T02:46:45.207Z,6.60
2022-12-03T02:49:11.976Z,7.60
2022-12-03T02:51:38.752Z,6.30
2022-12-03T02:54:05.574Z,6.80
2022-12-03T02:56:33.065Z,7.73
2022-12-03T02:59:03.193Z,6.10
2022-12-03T03:01:30.085Z,7.20
2022-12-03T03:03:57.972Z,6.20
2022-12-03T03:06:24.783Z,7.57
2022-12-03T03:08:52.302Z,7.23
2022-12-03T03:11:19.310Z,5.80
2022-12-03T03:13:46.481Z,6.13
2022-12-03T03:16:13.583Z,5.93
2022-12-03T03:18:40.532Z,8.10
2022-12-03T03:21:07.747Z,7.13
2022-12-03T03:23:34.665Z,5.73
2022-12-03T03:26:05.422Z,5.60
2022-12-03T03:28:34.592Z,5.90
2022-12-03T03:31:04.119Z,5.53
2022-12-03T03:33:30.835Z,5.47
2022-12-03T03:35:59.994Z,6.23
2022-12-03T03:38:28.024Z,5.80
2022-12-03T03:40:56.371Z,6.03
2022-12-03T03:43:24.135Z,6.47
2022-12-03T03:45:52.289Z,5.60
2022-12-03T03:48:20.037Z,6.80
2022-12-03T03:50:47.405Z,4.90
2022-12-03T03:53:14.847Z,6.57
2022-12-03T03:55:42.262Z,5.53
2022-12-03T03:58:09.369Z,4.90
2022-12-03T04:00:37.084Z,5.90
2022-12-03T04:03:05.196Z,5.03
2022-12-03T04:05:32.263Z,5.57
2022-12-03T04:07:59.419Z,5.77
2022-12-03T04:10:44.831Z,5.83
2022-12-03T04:13:11.704Z,5.80
2022-12-03T04:15:38.368Z,5.63
2022-12-03T04:18:24.111Z,5.60
2022-12-03T04:20:50.828Z,4.50
2022-12-03T04:23:17.631Z,5.33
2022-12-03T04:26:02.747Z,5.77
2022-12-03T04:28:48.154Z,7.53
2022-12-03T04:31:33.737Z,6.20
2022-12-03T04:34:19.194Z,5.40
2022-12-03T04:36:46.787Z,4.70
2022-12-03T04:39:13.649Z,5.00
2022-12-03T04:41:40.396Z,5.90
2022-12-03T04:44:25.603Z,6.53
2022-12-03T04:46:52.410Z,5.30
2022-12-03T04:49:19.050Z,6.27
2022-12-03T04:51:45.825Z,5.40
2022-12-03T04:54:12.556Z,5.43
2022-12-03T04:56:39.205Z,5.63
2022-12-03T04:59:08.091Z,5.83
2022-12-03T05:01:38.356Z,5.50
2022-12-03T05:04:05.124Z,6.23
2022-12-03T05:06:31.931Z,4.17
2022-12-03T05:08:58.674Z,4.33
2022-12-03T05:11:25.489Z,5.50
2022-12-03T05:13:52.603Z,6.50
2022-12-03T05:16:19.254Z,5.10
2022-12-03T05:18:46.004Z,5.27
2022-12-03T05:21:12.871Z,5.87
2022-12-03T05:23:39.893Z,5.10
2022-12-03T05:26:06.691Z,5.10
2022-12-03T05:28:33.812Z,5.47
2022-12-03T05:31:00.701Z,5.37
2022-12-03T05:33:27.516Z,6.40
2022-12-03T05:35:54.401Z,4.97
2022-12-03T05:38:21.178Z,5.47
2022-12-03T05:40:47.853Z,5.10
2022-12-03T05:43:14.579Z,5.03
2022-12-03T05:45:42.699Z,6.47
2022-12-03T05:48:11.796Z,5.87
2022-12-03T05:50:40.177Z,6.10
2022-12-03T05:53:17.298Z,5.20
2022-12-03T05:55:44.062Z,4.80
2022-12-03T05:58:11.608Z,5.97
2022-12-03T06:00:42.836Z,6.27
2022-12-03T06:03:10.629Z,6.10
2022-12-03T06:05:37.631Z,9.43
2022-12-03T06:08:04.563Z,8.33
2022-12-03T06:10:31.466Z,9.07
2022-12-03T06:12:58.268Z,7.67
2022-12-03T06:15:25.021Z,8.33
2022-12-03T06:17:52.275Z,6.83
2022-12-03T06:20:20.979Z,6.23
2022-12-03T06:22:49.229Z,5.87
2022-12-03T06:25:16.600Z,6.93
2022-12-03T06:27:43.539Z,6.43
2022-12-03T06:30:12.155Z,5.57
2022-12-03T06:32:38.924Z,6.27
2022-12-03T06:35:05.904Z,6.13
2022-12-03T06:37:32.588Z,7.37
2022-12-03T06:39:59.238Z,7.40
2022-12-03T06:42:25.900Z,9.80
2022-12-03T06:44:53.548Z,11.20
2022-12-03T06:47:20.628Z,9.73
2022-12-03T06:49:47.344Z,7.93
2022-12-03T06:52:14.051Z,7.77
2022-12-03T06:54:40.735Z,9.60
2022-12-03T06:57:07.568Z,8.93
2022-12-03T06:59:36.315Z,7.87
2022-12-03T07:02:04.156Z,9.57
2022-12-03T07:04:31.049Z,10.90
2022-12-03T07:06:57.806Z,9.27
2022-12-03T07:09:24.794Z,8.43
2022-12-03T07:11:51.563Z,9.20
2022-12-03T07:14:18.491Z,8.80
2022-12-03T07:16:45.205Z,7.50
2022-12-03T07:19:12.338Z,8.50
2022-12-03T07:21:39.106Z,7.37
2022-12-03T07:24:06.415Z,7.63
2022-12-03T07:26:33.228Z,7.37
2022-12-03T07:29:00.085Z,7.90
2022-12-03T07:31:27.231Z,8.37
2022-12-03T07:33:54.869Z,8.07
2022-12-03T07:36:21.726Z,7.40
2022-12-03T07:38:48.810Z,8.30
2022-12-03T07:41:15.643Z,7.83
2022-12-03T07:43:42.289Z,8.60
2022-12-03T07:46:09.083Z,9.53
2022-12-03T07:48:35.924Z,9.30
2022-12-03T07:51:02.716Z,9.30
2022-12-03T07:53:29.626Z,9.53
2022-12-03T07:55:56.244Z,9.10
2022-12-03T07:58:23.063Z,10.67
2022-12-03T08:00:49.749Z,11.20
2022-12-03T08:03:16.555Z,13.83
2022-12-03T08:05:43.364Z,11.10
2022-12-03T08:08:10.634Z,10.90
2022-12-03T08:10:37.407Z,13.23
2022-12-03T08:13:10.859Z,13.30
2022-12-03T08:15:39.661Z,10.83
2022-12-03T08:18:21.072Z,13.30
2022-12-03T08:20:50.148Z,11.00
2022-12-03T08:23:25.921Z,11.47
2022-12-03T08:25:53.316Z,11.33
2022-12-03T08:28:19.999Z,12.43
2022-12-03T08:31:18.383Z,12.40
2022-12-03T08:33:47.331Z,9.80
2022-12-03T08:36:30.672Z,9.47
2022-12-03T08:39:17.602Z,9.47
2022-12-03T08:42:02.959Z,9.30
2022-12-03T08:44:40.997Z,9.83
2022-12-03T08:47:13.814Z,9.07
2022-12-03T08:49:41.258Z,10.27
2022-12-03T08:52:20.244Z,10.67
2022-12-03T08:54:56.999Z,10.10
2022-12-03T08:57:31.749Z,10.93
2022-12-03T09:00:20.540Z,12.00
2022-12-03T09:03:10.865Z,11.57
2022-12-03T09:05:37.595Z,11.07
2022-12-03T09:08:04.273Z,12.63
2022-12-03T09:10:30.986Z,13.07
2022-12-03T09:12:57.743Z,14.87
2022-12-03T09:15:24.398Z,13.00
2022-12-03T09:18:06.406Z,11.97
2022-12-03T09:20:33.071Z,14.00
2022-12-03T09:22:59.920Z,12.40
2022-12-03T09:25:26.551Z,14.40
2022-12-03T09:27:53.449Z,12.33
2022-12-03T09:30:20.357Z,12.40
2022-12-03T09:32:47.122Z,13.30
2022-12-03T09:35:14.074Z,11.23
2022-12-03T09:37:40.737Z,11.87
2022-12-03T09:40:08.775Z,11.73
2022-12-03T09:42:36.555Z,11.57
2022-12-03T09:45:10.661Z,13.37
2022-12-03T09:47:39.295Z,12.13
2022-12-03T09:50:06.822Z,12.53
2022-12-03T09:52:34.242Z,12.87
2022-12-03T09:55:07.904Z,13.13
2022-12-03T09:57:34.696Z,12.73
2022-12-03T10:00:01.333Z,11.80
2022-12-03T10:02:30.688Z,15.17
2022-12-03T10:04:58.271Z,13.50
2022-12-03T10:07:26.087Z,13.33
2022-12-03T10:09:53.309Z,11.87
2022-12-03T10:12:24.270Z,12.13
2022-12-03T10:14:52.960Z,13.00
2022-12-03T10:17:19.891Z,13.57
2022-12-03T10:19:48.452Z,12.93
2022-12-03T10:22:15.168Z,13.07
2022-12-03T10:24:42.614Z,12.37
2022-12-03T10:27:30.112Z,13.47
2022-12-03T10:29:59.937Z,13.93
2022-12-03T10:32:39.046Z,15.10
2022-12-03T10:35:10.082Z,14.37
2022-12-03T10:37:36.871Z,15.37
2022-12-03T10:40:13.045Z,14.53
2022-12-03T10:42:41.064Z,12.73
2022-12-03T10:45:16.716Z,14.90
2022-12-03T10:48:01.423Z,14.27
2022-12-03T10:50:29.265Z,14.27
2022-12-03T10:52:56.203Z,13.00
2022-12-03T10:55:23.106Z,15.97
2022-12-03T10:57:50.004Z,20.27
2022-12-03T11:00:20.716Z,14.77
2022-12-03T11:02:54.835Z,18.67
2022-12-03T11:05:27.404Z,14.87
2022-12-03T11:07:54.562Z,16.60
2022-12-03T11:10:21.464Z,16.53
2022-12-03T11:13:25.892Z,17.87
2022-12-03T11:15:53.238Z,16.73
2022-12-03T11:18:38.052Z,15.73
2022-12-03T11:21:11.063Z,16.30
2022-12-03T11:23:47.232Z,15.87
2022-12-03T11:26:29.033Z,14.97
2022-12-03T11:28:58.061Z,15.37
2022-12-03T11:31:44.220Z,15.17
2022-12-03T11:34:23.344Z,14.93
2022-12-03T11:37:12.028Z,13.73
2022-12-03T11:39:45.149Z,13.80
2022-12-03T11:42:26.908Z,14.87
2022-12-03T11:45:05.843Z,15.37
2022-12-03T11:47:37.367Z,14.37
2022-12-03T11:50:24.476Z,14.63
2022-12-03T11:53:16.261Z,14.17
2022-12-03T11:56:06.141Z,13.63
2022-12-03T11:58:36.587Z,14.20
2022-12-03T12:01:05.477Z,14.30
2022-12-03T12:03:49.773Z,18.07
2022-12-03T12:06:19.882Z,16.27
2022-12-03T12:08:50.918Z,13.63
2022-12-03T12:11:19.559Z,15.40
2022-12-03T12:14:04.096Z,16.47
2022-12-03T12:16:49.925Z,13.80
2022-12-03T12:19:42.178Z,13.80
2022-12-03T12:22:20.767Z,15.90
2022-12-03T12:24:51.558Z,14.63
2022-12-03T12:27:33.181Z,13.33
2022-12-03T12:30:02.963Z,13.17
2022-12-03T12:32:32.048Z,14.37
2022-12-03T12:35:21.642Z,11.60
2022-12-03T12:37:59.753Z,14.67
2022-12-03T12:40:30.640Z,14.40
2022-12-03T12:43:05.344Z,13.07
2022-12-03T12:45:37.535Z,14.47
2022-12-03T12:48:10.017Z,15.30
2022-12-03T12:50:37.453Z,14.70
2022-12-03T12:53:24.912Z,14.03
2022-12-03T12:56:23.035Z,12.10
2022-12-03T12:58:50.718Z,13.27
2022-12-03T13:01:22.373Z,12.07
2022-12-03T13:03:51.474Z,11.53
2022-12-03T13:06:21.026Z,14.00
2022-12-03T13:08:50.289Z,13.40
2022-12-03T13:11:37.055Z,13.33
2022-12-03T13:14:23.618Z,15.83
2022-12-03T13:16:55.824Z,13.37
2022-12-03T13:19:28.119Z,13.57
2022-12-03T13:22:02.649Z,13.07
2022-12-03T13:24:35.106Z,11.03
2022-12-03T13:27:19.799Z,13.83
2022-12-03T13:29:59.156Z,13.80
2022-12-03T13:32:33.511Z,11.30
2022-12-03T13:35:10.122Z,11.77
2022-12-03T13:37:37.594Z,13.20
2022-12-03T13:40:25.541Z,12.77
2022-12-03T13:42:53.158Z,12.27
2022-12-03T13:45:19.809Z,12.47
2022-12-03T13:47:53.956Z,12.93
2022-12-03T13:50:20.695Z,10.20
2022-12-03T13:52:47.736Z,12.53
2022-12-03T13:55:25.339Z,11.30
2022-12-03T13:57:52.474Z,11.13
2022-12-03T14:00:19.791Z,10.10
2022-12-03T14:02:46.762Z,10.13
2022-12-03T14:05:13.612Z,12.87
2022-12-03T14:07:40.482Z,12.40
2022-12-03T14:10:09.471Z,12.13
2022-12-03T14:12:36.933Z,10.77
2022-12-03T14:15:05.667Z,13.13
2022-12-03T14:17:32.954Z,11.50
2022-12-03T14:20:03.745Z,10.23
2022-12-03T14:22:31.083Z,9.80
2022-12-03T14:24:58.134Z,11.43
2022-12-03T14:27:25.321Z,11.40
2022-12-03T14:29:52.719Z,10.20
2022-12-03T14:32:19.616Z,12.20
2022-12-03T14:34:46.388Z,11.40
2022-12-03T14:37:13.111Z,12.10
2022-12-03T14:39:40.071Z,10.70
2022-12-03T14:42:16.416Z,11.97
2022-12-03T14:44:46.047Z,10.90
2022-12-03T14:47:13.551Z,12.03
2022-12-03T14:49:40.422Z,12.03
2022-12-03T14:52:11.771Z,11.33
2022-12-03T14:54:40.503Z,11.57
2022-12-03T14:57:07.368Z,10.57
2022-12-03T14:59:34.169Z,11.73
2022-12-03T15:02:01.227Z,13.33
2022-12-03T15:04:28.065Z,12.07
2022-12-03T15:06:55.132Z,12.80
2022-12-03T15:09:21.918Z,9.67
2022-12-03T15:11:48.610Z,13.37
2022-12-03T15:14:15.577Z,12.53
2022-12-03T15:16:42.629Z,9.93
2022-12-03T15:19:09.559Z,11.40
2022-12-03T15:21:36.448Z,10.63
2022-12-03T15:24:03.376Z,10.13
2022-12-03T15:26:30.393Z,11.67
2022-12-03T15:28:57.293Z,11.10
2022-12-03T15:31:24.003Z,11.40
2022-12-03T15:33:50.692Z,11.53
2022-12-03T15:36:17.651Z,11.83
2022-12-03T15:38:44.509Z,10.47
2022-12-03T15:41:29.841Z,11.23
2022-12-03T15:43:59.385Z,10.80
2022-12-03T15:46:28.105Z,9.73
2022-12-03T15:48:55.539Z,10.97
2022-12-03T15:51:22.624Z,10.57
2022-12-03T15:53:49.601Z,10.63
2022-12-03T15:56:16.535Z,10.77
2022-12-03T15:58:43.254Z,12.13
2022-12-03T16:01:10.441Z,10.87
2022-12-03T16:03:37.373Z,10.67
2022-12-03T16:06:04.323Z,10.10
2022-12-03T16:08:31.282Z,10.27
2022-12-03T16:10:58.154Z,8.67
2022-12-03T16:13:24.850Z,12.77
2022-12-03T16:15:51.830Z,10.67
2022-12-03T16:18:18.575Z,10.33
2022-12-03T16:20:45.407Z,10.63
2022-12-03T16:23:12.016Z,10.77
2022-12-03T16:25:38.629Z,11.67
2022-12-03T16:28:06.143Z,9.23
2022-12-03T16:30:32.852Z,9.90
2022-12-03T16:32:59.468Z,11.47
2022-12-03T16:35:26.162Z,9.83
2022-12-03T16:37:52.831Z,10.97
2022-12-03T16:40:19.568Z,9.97
2022-12-03T16:42:46.380Z,9.93
2022-12-03T16:45:21.844Z,10.53
2022-12-03T16:47:49.672Z,9.53
2022-12-03T16:50:24.301Z,9.73
2022-12-03T16:52:54.566Z,10.00
2022-12-03T16:55:21.267Z,9.60
2022-12-03T16:57:47.890Z,10.57
2022-12-03T17:00:15.145Z,10.33
2022-12-03T17:02:41.900Z,9.73
2022-12-03T17:05:08.759Z,11.87
2022-12-03T17:07:35.530Z,10.43
2022-12-03T17:10:02.521Z,11.53
2022-12-03T17:12:42.228Z,11.07
2022-12-03T17:15:16.040Z,10.13
2022-12-03T17:17:42.751Z,12.77
2022-12-03T17:20:12.408Z,12.93
2022-12-03T17:22:39.228Z,12.17
2022-12-03T17:25:06.253Z,11.87
2022-12-03T17:27:33.133Z,12.97
2022-12-03T17:29:59.882Z,11.90
2022-12-03T17:32:27.024Z,13.47
2022-12-03T17:34:53.710Z,14.57
2022-12-03T17:37:20.433Z,14.70
2022-12-03T17:39:47.091Z,14.53
2022-12-03T17:42:13.791Z,15.20
2022-12-03T17:44:40.593Z,14.50
2022-12-03T17:47:07.310Z,15.37
2022-12-03T17:49:33.992Z,13.63
2022-12-03T17:52:00.659Z,15.87
2022-12-03T17:54:43.178Z,13.87
2022-12-03T17:57:14.214Z,15.10
2022-12-03T17:59:41.304Z,11.63
2022-12-03T18:02:07.929Z,14.07
2022-12-03T18:04:34.840Z,15.03
2022-12-03T18:07:02.604Z,14.83
2022-12-03T18:09:29.418Z,13.93
2022-12-03T18:11:56.335Z,13.83
2022-12-03T18:14:23.214Z,12.33
2022-12-03T18:16:49.861Z,12.70
2022-12-03T18:19:16.656Z,12.10
2022-12-03T18:21:43.631Z,13.53
2022-12-03T18:24:10.542Z,14.43
2022-12-03T18:26:38.054Z,15.47
2022-12-03T18:29:04.707Z,13.93
2022-12-03T18:31:31.586Z,16.20
2022-12-03T18:33:58.458Z,15.80
2022-12-03T18:36:29.819Z,15.63
2022-12-03T18:39:00.478Z,14.73
2022-12-03T18:41:27.853Z,14.37
2022-12-03T18:43:55.115Z,15.43
2022-12-03T18:49:10.170Z,14.37
2022-12-03T18:51:37.333Z,15.73
2022-12-03T18:54:05.808Z,15.53
2022-12-03T18:56:32.642Z,17.23
2022-12-03T18:58:59.439Z,18.20
2022-12-03T19:01:26.257Z,16.87
2022-12-03T19:03:54.429Z,16.83
2022-12-03T19:06:21.527Z,16.73
2022-12-03T19:08:49.626Z,15.93
2022-12-03T19:11:16.359Z,16.40
2022-12-03T19:13:43.269Z,16.40
2022-12-03T19:16:10.480Z,16.50
2022-12-03T19:18:37.686Z,16.77
2022-12-03T19:21:09.345Z,16.67
2022-12-03T19:23:36.982Z,17.47
2022-12-03T19:26:06.137Z,16.57
2022-12-03T19:28:33.802Z,16.30
2022-12-03T19:31:10.985Z,17.83
2022-12-03T19:33:38.250Z,17.70
2022-12-03T19:36:06.997Z,16.47
2022-12-03T19:38:34.255Z,19.63
2022-12-03T19:41:11.340Z,19.07
2022-12-03T19:43:38.620Z,19.47
2022-12-03T19:46:08.141Z,18.37
2022-12-03T19:48:36.296Z,18.83
2022-12-03T19:51:32.593Z,19.37
2022-12-03T19:53:51.067Z,17.47
2022-12-03T19:56:19.563Z,17.73
2022-12-03T19:58:47.440Z,18.37
2022-12-03T20:01:24.735Z,16.03
2022-12-03T20:03:53.495Z,15.53
2022-12-03T20:06:25.818Z,18.17
2022-12-03T20:09:00.815Z,15.57
2022-12-03T20:11:30.513Z,16.87
2022-12-03T20:13:59.300Z,15.53
2022-12-03T20:16:26.898Z,17.23
2022-12-03T20:18:57.356Z,17.13
2022-12-03T20:21:24.403Z,19.50
2022-12-03T20:23:51.081Z,17.40
2022-12-03T20:26:19.998Z,18.10
2022-12-03T20:28:50.364Z,15.17
2022-12-03T20:31:19.797Z,17.43
2022-12-03T20:33:49.208Z,17.63
2022-12-03T20:36:18.636Z,16.60
2022-12-03T20:38:45.711Z,16.00
2022-12-03T20:41:18.511Z,17.00
2022-12-03T20:43:45.664Z,16.80
2022-12-03T20:46:17.173Z,16.63
2022-12-03T20:48:44.846Z,16.97
2022-12-03T20:51:14.382Z,15.50
2022-12-03T20:53:42.381Z,15.73
2022-12-03T20:56:10.182Z,16.43
2022-12-03T20:58:37.502Z,17.87
2022-12-03T21:01:16.003Z,15.07
2022-12-03T21:03:44.306Z,16.87
2022-12-03T21:06:12.332Z,16.40
2022-12-03T21:08:42.251Z,17.37
2022-12-03T21:11:18.730Z,17.57
2022-12-03T21:13:46.480Z,17.83
2022-12-03T21:16:16.617Z,17.83
2022-12-03T21:18:44.061Z,15.57
2022-12-03T21:21:12.502Z,17.43
2022-12-03T21:23:39.451Z,18.13
2022-12-03T21:26:14.814Z,20.03
2022-12-03T21:28:43.476Z,19.27
2022-12-03T21:31:12.820Z,17.10
2022-12-03T21:33:40.579Z,17.53
2022-12-03T21:36:08.156Z,18.57
2022-12-03T21:38:36.564Z,17.37
2022-12-03T21:41:04.479Z,17.27
2022-12-03T21:43:32.424Z,16.57
2022-12-03T21:45:59.384Z,19.00
2022-12-03T21:48:26.090Z,19.30
2022-12-03T21:51:04.641Z,16.73
2022-12-03T21:53:32.981Z,16.90
2022-12-03T21:56:00.316Z,18.50
2022-12-03T21:58:27.017Z,18.87
2022-12-03T22:00:53.893Z,17.20
2022-12-03T22:03:20.722Z,18.17
2022-12-03T22:05:48.851Z,18.10
2022-12-03T22:08:15.709Z,16.23
2022-12-03T22:10:43.078Z,15.90
2022-12-03T22:13:09.924Z,15.33
2022-12-03T22:15:40.121Z,16.67
2022-12-03T22:18:07.423Z,17.13
2022-12-03T22:20:34.103Z,17.43
2022-12-03T22:23:00.959Z,16.67
2022-12-03T22:25:27.779Z,17.83
2022-12-03T22:27:54.380Z,17.00
2022-12-03T22:30:21.187Z,16.17
2022-12-03T22:32:48.032Z,16.00
2022-12-03T22:35:14.877Z,17.13
2022-12-03T22:37:41.578Z,16.43
2022-12-03T22:40:08.549Z,14.50
2022-12-03T22:42:35.253Z,16.63
2022-12-03T22:45:02.120Z,16.03
2022-12-03T22:47:28.790Z,14.77
2022-12-03T22:49:55.969Z,15.87
2022-12-03T22:52:23.099Z,15.93
2022-12-03T22:54:49.835Z,15.47
2022-12-03T22:57:16.850Z,14.90
2022-12-03T22:59:43.730Z,13.43
2022-12-03T23:02:10.560Z,14.87
2022-12-03T23:04:37.262Z,14.17
2022-12-03T23:07:04.185Z,16.47
2022-12-03T23:09:30.842Z,15.00
2022-12-03T23:11:57.773Z,16.43
2022-12-03T23:14:24.434Z,15.07
2022-12-03T23:16:51.184Z,15.30
2022-12-03T23:19:19.836Z,13.07
2022-12-03T23:21:47.177Z,13.57
2022-12-03T23:24:13.837Z,14.63
2022-12-03T23:26:40.845Z,14.90
2022-12-03T23:29:08.376Z,13.33
2022-12-03T23:31:36.157Z,14.57
2022-12-03T23:34:03.206Z,15.30
2022-12-03T23:36:32.827Z,11.90
2022-12-03T23:39:00.355Z,14.53
2022-12-03T23:41:27.128Z,12.23
2022-12-03T23:43:54.068Z,14.90
2022-12-03T23:46:23.910Z,14.33
2022-12-03T23:48:51.436Z,12.53
2022-12-03T23:51:20.912Z,14.80
2022-12-03T23:53:47.684Z,13.27
2022-12-03T23:56:22.995Z,11.47
2022-12-03T23:58:50.423Z,11.97
